Time;durP1;ratioP1;P1;durP2;ratioP2;P2;SDS_P1;SDS_P2;PMS_P1;PMS_P2;Temp;Humidity;BMP_temperature;BMP_pressure;BME280_temperature;BME280_humidity;BME280_pressure;Samples;Min_cycle;Max_cycle;Signal;HPM_P1;HPM_P2
2022/04/05 00:02:31;;;;;;;7.50;6.80;;;;;;;0.61;72.11;97677.88;447546;1269;162115;-59
2022/04/05 00:12:37;;;;;;;8.70;6.70;;;;;;;0.53;73.00;97669.48;446728;1269;143615;-59
2022/04/05 00:22:42;;;;;;;7.70;6.90;;;;;;;0.55;73.37;97657.34;447581;1269;146105;-59
2022/04/05 00:32:48;;;;;;;8.20;7.40;;;;;;;0.63;74.34;97645.59;447470;1269;141971;-60
2022/04/05 00:42:55;;;;;;;8.30;7.60;;;;;;;0.79;74.53;97625.61;446781;1268;142275;-60
2022/04/05 00:53:06;;;;;;;7.80;7.10;;;;;;;0.94;74.37;97621.98;447662;1269;143512;-60
2022/04/05 01:03:13;;;;;;;8.30;7.50;;;;;;;1.07;74.69;97600.75;445718;1270;185685;-60
2022/04/05 01:13:19;;;;;;;8.00;7.30;;;;;;;1.16;74.91;97587.67;446872;1269;142609;-60
2022/04/05 01:23:26;;;;;;;7.20;6.60;;;;;;;1.23;74.84;97583.48;447644;1269;141904;-60
2022/04/05 01:33:32;;;;;;;7.80;7.10;;;;;;;1.25;75.25;97581.44;442365;1269;142498;-58
2022/04/05 01:43:38;;;;;;;8.70;7.90;;;;;;;1.22;75.79;97579.90;435516;1269;213599;-59
2022/04/05 01:53:44;;;;;;;8.60;7.70;;;;;;;1.19;76.01;97575.58;430178;1270;143049;-59
2022/04/05 02:03:50;;;;;;;7.60;6.90;;;;;;;1.22;76.26;97567.16;440554;1268;142860;-59
2022/04/05 02:13:56;;;;;;;8.10;7.30;;;;;;;1.29;76.12;97575.02;447729;1269;142398;-60
2022/04/05 02:24:02;;;;;;;9.00;8.10;;;;;;;1.41;76.34;97550.56;447708;1269;142060;-61
2022/04/05 02:34:08;;;;;;;9.10;8.20;;;;;;;1.47;76.45;97554.66;446922;1269;141508;-60
2022/04/05 02:44:13;;;;;;;8.80;8.00;;;;;;;1.56;76.48;97549.68;447536;1269;142659;-61
2022/04/05 02:54:19;;;;;;;9.20;8.40;;;;;;;1.67;76.52;97538.98;447717;1269;141874;-59
2022/04/05 03:04:25;;;;;;;9.00;8.20;;;;;;;1.80;76.55;97535.96;446915;1269;143292;-59
2022/04/05 03:14:31;;;;;;;8.80;8.10;;;;;;;1.87;76.41;97520.52;447686;1269;142422;-60
2022/04/05 03:24:36;;;;;;;8.30;7.60;;;;;;;1.94;76.32;97521.29;446963;1269;141168;-60
2022/04/05 03:34:42;;;;;;;8.30;7.50;;;;;;;2.02;76.34;97513.90;447498;1269;142153;-60
2022/04/05 03:44:48;;;;;;;7.50;6.80;;;;;;;2.11;76.47;97519.39;447557;1267;142219;-61
2022/04/05 03:54:53;;;;;;;8.20;7.40;;;;;;;2.20;75.96;97520.04;446799;1268;163569;-59
2022/04/05 04:04:59;;;;;;;8.10;7.40;;;;;;;2.26;75.98;97529.02;447717;1267;141857;-60
2022/04/05 04:15:06;;;;;;;8.60;7.80;;;;;;;2.33;76.00;97526.83;445935;1269;142054;-62
2022/04/05 04:25:12;;;;;;;10.00;9.10;;;;;;;2.40;76.22;97523.30;446924;1270;143249;-60
2022/04/05 04:35:18;;;;;;;9.30;8.40;;;;;;;2.44;76.38;97526.83;447634;1270;141816;-60
2022/04/05 04:45:26;;;;;;;10.00;9.00;;;;;;;2.56;76.36;97534.23;447576;1269;141699;-59
2022/04/05 04:55:33;;;;;;;9.30;8.40;;;;;;;2.69;75.98;97541.46;447232;1269;142542;-60
2022/04/05 05:05:59;;;;;;;7.60;7.00;;;;;;;2.88;75.75;97544.90;447621;1269;141856;-60
2022/04/05 05:16:05;;;;;;;8.80;8.10;;;;;;;3.09;75.41;97548.55;435892;1269;141880;-61
2022/04/05 05:26:11;;;;;;;9.10;8.20;;;;;;;3.21;75.35;97565.11;438829;1270;141410;-59
2022/04/05 05:36:17;;;;;;;9.20;8.40;;;;;;;3.41;75.11;97576.55;440794;1269;142129;-60
2022/04/05 05:46:23;;;;;;;9.40;8.50;;;;;;;3.96;74.43;97594.38;446947;1269;142851;-61
2022/04/05 05:56:29;;;;;;;8.50;7.70;;;;;;;4.08;73.87;97608.77;443187;1270;145268;-59
2022/04/05 06:06:34;;;;;;;8.10;7.30;;;;;;;3.94;73.92;97625.98;431647;1270;142063;-59
2022/04/05 06:16:40;;;;;;;7.70;7.00;;;;;;;3.90;74.08;97637.52;433333;1270;141467;-59
2022/04/05 06:26:46;;;;;;;3.60;3.20;;;;;;;3.79;73.14;97633.73;434958;1269;141632;-59
2022/04/05 06:36:53;;;;;;;1.10;0.90;;;;;;;3.75;72.11;97641.80;431393;1270;141716;-64
2022/04/05 06:46:59;;;;;;;1.50;1.40;;;;;;;3.80;71.75;97648.56;431400;1269;142163;-63
2022/04/05 06:57:05;;;;;;;2.30;2.10;;;;;;;4.27;72.11;97661.86;437205;1270;141551;-62
2022/04/05 07:07:11;;;;;;;2.40;2.20;;;;;;;4.88;71.57;97656.78;446983;1269;142081;-62
2022/04/05 07:17:16;;;;;;;1.60;1.50;;;;;;;4.85;70.81;97672.55;445871;1270;143211;-61
2022/04/05 07:27:22;;;;;;;1.80;1.40;;;;;;;5.13;69.43;97678.70;440674;1270;142742;-60
2022/04/05 07:37:30;;;;;;;1.50;1.40;;;;;;;5.76;68.53;97677.77;446894;1269;142486;-65
2022/04/05 07:47:36;;;;;;;1.90;1.10;;;;;;;6.75;65.94;97684.05;438571;1270;142310;-70
2022/04/05 07:57:45;;;;;;;1.80;0.90;;;;;;;6.83;62.93;97687.60;443906;1270;142963;-67
2022/04/05 08:07:51;;;;;;;3.30;1.80;;;;;;;7.21;60.53;97699.58;447575;1269;140991;-63
2022/04/05 08:17:57;;;;;;;1.70;0.80;;;;;;;7.20;58.84;97706.60;441277;1269;141451;-60
2022/04/05 08:28:04;;;;;;;2.50;1.30;;;;;;;6.56;58.66;97723.96;431709;1270;140858;-66
2022/04/05 08:38:10;;;;;;;0.80;0.50;;;;;;;6.16;58.72;97731.66;435004;1270;141530;-62
2022/04/05 08:48:17;;;;;;;1.10;0.60;;;;;;;6.06;59.09;97740.34;442273;1269;141014;-65
2022/04/05 08:58:23;;;;;;;1.90;0.70;;;;;;;5.64;59.75;97752.14;436703;1270;142659;-66
2022/04/05 09:08:30;;;;;;;2.80;0.90;;;;;;;5.20;60.65;97753.52;434785;1269;140413;-69
2022/04/05 09:18:39;;;;;;;1.60;1.30;;;;;;;5.07;61.26;97764.66;434600;1270;141113;-67
2022/04/05 09:28:46;;;;;;;3.60;1.70;;;;;;;4.72;61.90;97776.11;447858;1270;142897;-67
2022/04/05 09:38:52;;;;;;;4.70;1.50;;;;;;;4.71;62.53;97780.01;435918;1270;141519;-66
2022/04/05 09:49:09;;;;;;;3.50;1.70;;;;;;;4.86;62.64;97779.46;435883;1270;141753;-66
2022/04/05 09:59:18;;;;;;;4.70;3.00;;;;;;;5.14;62.89;97789.87;447830;1270;142380;-67
2022/04/05 10:09:25;;;;;;;2.50;2.30;;;;;;;4.98;63.29;97805.38;447685;1269;141555;-64
2022/04/05 10:19:32;;;;;;;5.00;3.40;;;;;;;4.79;64.54;97826.55;446949;1270;141247;-67
2022/04/05 10:29:39;;;;;;;5.00;3.70;;;;;;;4.57;66.31;97837.79;447601;1270;141725;-67
2022/04/05 10:40:06;;;;;;;5.70;3.60;;;;;;;4.66;67.01;97829.19;446778;1270;142105;-71
2022/04/05 10:50:21;;;;;;;4.70;3.70;;;;;;;4.80;67.39;97835.73;446098;1270;141208;-74
2022/04/05 11:00:28;;;;;;;4.40;4.00;;;;;;;4.66;67.95;97846.02;447587;1270;141098;-69
2022/04/05 11:10:50;;;;;;;5.20;4.60;;;;;;;4.90;68.35;97858.55;447585;1270;141385;-72
2022/04/05 11:20:57;;;;;;;4.80;3.90;;;;;;;5.63;68.12;97857.03;447632;1269;141825;-64
2022/04/05 11:31:04;;;;;;;4.90;2.60;;;;;;;6.17;66.60;97863.42;441429;1269;141402;-68
2022/04/05 11:41:18;;;;;;;4.90;2.30;;;;;;;7.02;64.74;97859.36;447682;1270;143674;-66
2022/04/05 11:51:26;;;;;;;4.00;2.40;;;;;;;7.86;62.44;97862.61;447626;1270;142042;-67
2022/04/05 12:01:37;;;;;;;3.50;2.90;;;;;;;8.62;60.35;97872.70;447411;1270;262556;-66
2022/04/05 12:11:42;;;;;;;;;;;;;;;8.93;58.77;97865.76;447667;1270;140940;-66
2022/04/05 12:21:51;;;;;;;3.00;1.50;;;;;;;8.71;57.37;97877.30;447179;1270;129746;-62
2022/04/05 12:32:04;;;;;;;2.40;2.20;;;;;;;8.45;56.54;97893.38;447702;1268;142024;-64
2022/04/05 12:42:11;;;;;;;3.70;2.40;;;;;;;8.37;57.58;97889.49;447677;1269;142503;-64
2022/04/05 12:52:19;;;;;;;2.50;2.10;;;;;;;8.69;56.85;97890.19;446893;1267;140696;-68
2022/04/05 13:02:26;;;;;;;3.20;2.40;;;;;;;8.24;57.35;97901.34;447605;1269;141420;-70
2022/04/05 13:12:39;;;;;;;4.80;2.30;;;;;;;8.51;57.05;97892.94;447261;1269;142304;-66
2022/04/05 13:23:01;;;;;;;3.90;2.40;;;;;;;8.50;56.34;97906.27;447467;1267;198626;-57
2022/04/05 13:33:09;;;;;;;4.20;2.00;;;;;;;8.72;55.58;97913.03;446859;1269;141623;-59
2022/04/05 13:43:15;;;;;;;2.90;2.20;;;;;;;8.74;54.57;97916.88;443489;1269;141430;-55
2022/04/05 13:53:20;;;;;;;3.70;1.40;;;;;;;9.31;53.49;97923.95;443065;1269;141235;-57
2022/04/05 14:03:27;;;;;;;6.80;1.60;;;;;;;9.25;50.58;97923.79;443690;1269;140898;-57
2022/04/05 14:13:33;;;;;;;9.10;1.80;;;;;;;8.83;50.12;97939.35;447706;1269;142072;-58
2022/04/05 14:23:41;;;;;;;9.40;2.00;;;;;;;8.82;48.82;97942.89;439518;1270;199080;-50
2022/04/05 14:33:47;;;;;;;6.00;1.20;;;;;;;8.77;48.03;97940.73;447019;1269;141707;-58
2022/04/05 14:43:59;;;;;;;4.40;1.90;;;;;;;8.81;46.90;97936.16;440285;1269;140623;-59
2022/04/05 14:54:05;;;;;;;4.40;1.30;;;;;;;8.96;46.16;97939.30;447748;1269;142125;-58
2022/04/05 15:04:11;;;;;;;4.10;0.80;;;;;;;8.93;45.79;97945.34;447015;1267;141549;-57
2022/04/05 15:14:17;;;;;;;1.60;1.30;;;;;;;8.94;45.15;97949.91;447735;1269;142318;-60
2022/04/05 15:24:24;;;;;;;6.60;1.80;;;;;;;8.55;44.36;97958.33;447654;1269;143206;-60
2022/04/05 15:34:30;;;;;;;4.80;1.70;;;;;;;8.39;44.65;97965.20;446785;1269;141759;-59
2022/04/05 15:44:43;;;;;;;5.20;2.00;;;;;;;8.27;44.63;97967.39;445247;1269;141136;-62
2022/04/05 15:54:50;;;;;;;8.30;1.60;;;;;;;8.10;44.85;97970.62;446786;1269;141880;-56
2022/04/05 16:04:56;;;;;;;4.20;1.20;;;;;;;7.87;44.90;97976.98;445203;1269;142406;-56
2022/04/05 16:15:02;;;;;;;3.60;1.80;;;;;;;7.64;45.09;97977.03;447655;1269;142983;-53
2022/04/05 16:25:10;;;;;;;5.10;1.60;;;;;;;7.50;45.56;97989.73;443208;1269;144747;-51
2022/04/05 16:35:15;;;;;;;8.60;1.80;;;;;;;7.37;45.63;97996.96;432897;1270;141157;-50
2022/04/05 16:45:21;;;;;;;5.20;2.00;;;;;;;7.23;45.69;97999.79;435783;1269;141610;-51
2022/04/05 16:55:27;;;;;;;5.60;2.50;;;;;;;6.99;46.06;98007.63;441796;1269;141741;-49
2022/04/05 17:05:34;;;;;;;7.20;3.30;;;;;;;6.84;46.14;98026.30;444421;1270;141593;-49
2022/04/05 17:15:40;;;;;;;4.00;2.20;;;;;;;6.73;47.00;98045.58;435407;1269;140620;-50
2022/04/05 17:25:46;;;;;;;4.10;2.20;;;;;;;6.59;47.93;98057.00;447705;1269;142462;-53
2022/04/05 17:35:52;;;;;;;3.10;2.00;;;;;;;6.35;49.03;98070.30;447744;1269;182589;-53
2022/04/05 17:45:58;;;;;;;4.60;1.90;;;;;;;6.22;49.70;98085.67;446993;1269;142782;-50
2022/04/05 17:56:04;;;;;;;3.90;2.30;;;;;;;6.02;50.12;98089.28;438676;1269;141348;-51
2022/04/05 18:06:10;;;;;;;6.50;3.10;;;;;;;5.83;50.70;98097.14;447736;1269;141249;-51
2022/04/05 18:16:16;;;;;;;5.40;2.60;;;;;;;5.66;51.05;98105.09;447003;1269;142184;-49
2022/04/05 18:26:22;;;;;;;9.30;2.30;;;;;;;5.55;51.74;98123.16;447423;1269;140455;-52
2022/04/05 18:36:28;;;;;;;6.30;2.00;;;;;;;5.53;52.08;98135.11;447851;1269;141607;-53
2022/04/05 18:46:34;;;;;;;6.50;2.70;;;;;;;5.51;52.59;98138.35;437421;1270;141540;-54
2022/04/05 18:56:40;;;;;;;7.60;2.80;;;;;;;5.50;53.07;98142.96;441729;1269;140541;-58
2022/04/05 19:06:46;;;;;;;5.40;2.20;;;;;;;5.25;53.59;98143.00;445442;1269;141548;-59
2022/04/05 19:16:52;;;;;;;5.80;2.40;;;;;;;4.87;55.09;98150.64;438797;1270;140451;-58
2022/04/05 19:26:58;;;;;;;7.30;3.50;;;;;;;4.63;55.54;98145.49;430774;1269;141322;-59
2022/04/05 19:37:05;;;;;;;13.80;5.90;;;;;;;4.49;56.78;98144.99;441111;1269;141427;-59
2022/04/05 19:47:13;;;;;;;16.10;6.10;;;;;;;4.28;57.66;98148.17;433456;1270;141914;-58
2022/04/05 19:57:19;;;;;;;12.80;6.80;;;;;;;3.89;59.12;98151.20;446299;1269;141943;-60
2022/04/05 20:07:25;;;;;;;8.90;5.40;;;;;;;3.68;60.47;98141.52;446778;1268;142157;-60
2022/04/05 20:27:57;;;;;;;16.00;9.30;;;;;;;3.71;62.63;98106.27;446832;1269;142035;-59
2022/04/05 20:38:03;;;;;;;16.00;7.30;;;;;;;3.82;63.14;98106.44;441425;1270;141675;-61
2022/04/05 20:48:09;;;;;;;15.70;7.40;;;;;;;3.91;64.26;98096.73;440265;1269;143254;-60
2022/04/05 20:58:17;;;;;;;14.20;9.10;;;;;;;3.97;65.45;98086.89;446884;1268;141578;-60
2022/04/05 21:08:22;;;;;;;9.60;6.20;;;;;;;4.01;66.22;98074.48;447558;1269;141625;-60
2022/04/05 21:18:28;;;;;;;9.20;5.10;;;;;;;4.05;66.32;98061.95;447514;1270;141945;-59
2022/04/05 21:38:58;;;;;;;11.30;7.70;;;;;;;4.06;67.74;98038.67;431794;1269;141481;-62
2022/04/05 21:49:04;;;;;;;9.80;8.00;;;;;;;4.06;68.27;98038.48;436309;1269;145611;-60
2022/04/05 21:59:10;;;;;;;12.90;10.50;;;;;;;4.12;69.18;98037.80;447742;1269;143145;-59
2022/04/05 22:09:16;;;;;;;12.30;9.40;;;;;;;4.19;69.94;98033.40;447540;1269;141822;-58
2022/04/05 22:19:22;;;;;;;11.70;8.50;;;;;;;4.24;70.59;98036.18;446926;1269;143028;-59
2022/04/05 22:29:28;;;;;;;14.80;10.70;;;;;;;4.27;71.69;98033.58;447728;1269;141599;-59
2022/04/05 22:39:36;;;;;;;10.90;8.90;;;;;;;4.28;72.46;98034.71;447095;1269;142841;-58
2022/04/05 22:49:42;;;;;;;9.90;8.10;;;;;;;4.30;73.36;98037.39;447672;1269;142381;-60
2022/04/05 22:59:47;;;;;;;10.30;7.60;;;;;;;4.33;73.96;98038.59;447588;1270;141322;-59
2022/04/05 23:09:54;;;;;;;8.20;6.80;;;;;;;4.34;74.64;98026.39;436973;1270;142773;-58
2022/04/05 23:20:00;;;;;;;8.20;7.30;;;;;;;4.34;74.85;98017.88;437638;1270;142093;-59
2022/04/05 23:30:07;;;;;;;11.70;9.10;;;;;;;4.37;75.76;98014.23;445044;1270;142508;-59
2022/04/05 23:40:12;;;;;;;;;;;;;;;4.40;76.24;98008.87;441209;1270;142741;-59
2022/04/05 23:50:18;;;;;;;10.80;9.30;;;;;;;4.45;76.53;98004.40;444963;1269;127748;-60
